sensor_id;sensor_type;location;lat;lon;timestamp;P1;durP1;ratioP1;P2;durP2;ratioP2
62724;SDS011;49026;52.600;4.694;2023-05-14T00:01:40;29.30;;;14.68;;
62724;SDS011;49026;52.600;4.694;2023-05-14T00:04:06;29.25;;;13.95;;
62724;SDS011;49026;52.600;4.694;2023-05-14T00:06:31;25.05;;;13.15;;
62724;SDS011;49026;52.600;4.694;2023-05-14T00:08:59;22.38;;;11.77;;
62724;SDS011;49026;52.600;4.694;2023-05-14T00:11:27;22.60;;;13.00;;
62724;SDS011;49026;52.600;4.694;2023-05-14T00:13:52;22.42;;;13.35;;
62724;SDS011;49026;52.600;4.694;2023-05-14T00:16:17;19.63;;;11.90;;
62724;SDS011;49026;52.600;4.694;2023-05-14T00:18:45;22.80;;;12.00;;
62724;SDS011;49026;52.600;4.694;2023-05-14T00:21:10;26.35;;;12.73;;
62724;SDS011;49026;52.600;4.694;2023-05-14T00:23:38;20.48;;;11.68;;
62724;SDS011;49026;52.600;4.694;2023-05-14T00:26:03;22.88;;;13.20;;
62724;SDS011;49026;52.600;4.694;2023-05-14T00:28:29;20.20;;;12.10;;
62724;SDS011;49026;52.600;4.694;2023-05-14T00:30:57;21.85;;;10.52;;
62724;SDS011;49026;52.600;4.694;2023-05-14T00:33:22;24.08;;;10.93;;
62724;SDS011;49026;52.600;4.694;2023-05-14T00:35:48;30.95;;;12.82;;
62724;SDS011;49026;52.600;4.694;2023-05-14T00:38:15;21.42;;;9.90;;
62724;SDS011;49026;52.600;4.694;2023-05-14T00:40:43;26.33;;;12.43;;
62724;SDS011;49026;52.600;4.694;2023-05-14T00:43:16;21.38;;;13.20;;
62724;SDS011;49026;52.600;4.694;2023-05-14T00:45:43;20.63;;;12.50;;
62724;SDS011;49026;52.600;4.694;2023-05-14T00:48:09;25.40;;;13.02;;
62724;SDS011;49026;52.600;4.694;2023-05-14T00:50:34;20.30;;;11.38;;
62724;SDS011;49026;52.600;4.694;2023-05-14T00:52:59;17.73;;;11.80;;
62724;SDS011;49026;52.600;4.694;2023-05-14T00:55:27;26.52;;;12.75;;
62724;SDS011;49026;52.600;4.694;2023-05-14T00:57:54;23.02;;;13.00;;
62724;SDS011;49026;52.600;4.694;2023-05-14T01:00:22;31.15;;;13.68;;
62724;SDS011;49026;52.600;4.694;2023-05-14T01:02:47;22.42;;;10.88;;
62724;SDS011;49026;52.600;4.694;2023-05-14T01:05:12;24.33;;;13.10;;
62724;SDS011;49026;52.600;4.694;2023-05-14T01:10:41;21.27;;;12.98;;
62724;SDS011;49026;52.600;4.694;2023-05-14T01:13:27;26.88;;;11.88;;
62724;SDS011;49026;52.600;4.694;2023-05-14T01:16:02;26.73;;;13.68;;
62724;SDS011;49026;52.600;4.694;2023-05-14T01:18:28;31.95;;;13.60;;
62724;SDS011;49026;52.600;4.694;2023-05-14T01:20:56;27.17;;;14.52;;
62724;SDS011;49026;52.600;4.694;2023-05-14T01:23:23;24.45;;;11.88;;
62724;SDS011;49026;52.600;4.694;2023-05-14T01:25:48;28.02;;;12.68;;
62724;SDS011;49026;52.600;4.694;2023-05-14T01:28:15;24.92;;;13.27;;
62724;SDS011;49026;52.600;4.694;2023-05-14T01:30:52;26.70;;;15.30;;
62724;SDS011;49026;52.600;4.694;2023-05-14T01:33:21;25.50;;;13.48;;
62724;SDS011;49026;52.600;4.694;2023-05-14T01:35:49;27.88;;;14.25;;
62724;SDS011;49026;52.600;4.694;2023-05-14T01:38:17;46.35;;;15.35;;
62724;SDS011;49026;52.600;4.694;2023-05-14T01:40:44;26.15;;;15.00;;
62724;SDS011;49026;52.600;4.694;2023-05-14T01:43:13;38.25;;;17.38;;
62724;SDS011;49026;52.600;4.694;2023-05-14T01:45:39;34.10;;;14.00;;
62724;SDS011;49026;52.600;4.694;2023-05-14T01:48:05;28.80;;;14.68;;
62724;SDS011;49026;52.600;4.694;2023-05-14T01:50:33;41.80;;;18.05;;
62724;SDS011;49026;52.600;4.694;2023-05-14T01:52:58;48.25;;;18.33;;
62724;SDS011;49026;52.600;4.694;2023-05-14T01:55:23;62.67;;;18.63;;
62724;SDS011;49026;52.600;4.694;2023-05-14T01:57:49;40.80;;;17.67;;
62724;SDS011;49026;52.600;4.694;2023-05-14T02:00:15;51.55;;;18.25;;
62724;SDS011;49026;52.600;4.694;2023-05-14T02:02:41;78.38;;;18.17;;
62724;SDS011;49026;52.600;4.694;2023-05-14T02:05:06;47.65;;;13.35;;
62724;SDS011;49026;52.600;4.694;2023-05-14T02:07:32;35.85;;;11.90;;
62724;SDS011;49026;52.600;4.694;2023-05-14T02:09:57;43.42;;;15.18;;
62724;SDS011;49026;52.600;4.694;2023-05-14T02:12:23;53.72;;;14.25;;
62724;SDS011;49026;52.600;4.694;2023-05-14T02:14:48;37.67;;;16.10;;
62724;SDS011;49026;52.600;4.694;2023-05-14T02:17:13;32.95;;;12.25;;
62724;SDS011;49026;52.600;4.694;2023-05-14T02:19:41;40.30;;;12.85;;
62724;SDS011;49026;52.600;4.694;2023-05-14T02:22:07;36.33;;;14.05;;
62724;SDS011;49026;52.600;4.694;2023-05-14T02:24:32;37.05;;;16.60;;
62724;SDS011;49026;52.600;4.694;2023-05-14T02:26:57;42.67;;;16.60;;
62724;SDS011;49026;52.600;4.694;2023-05-14T02:29:25;30.27;;;14.70;;
62724;SDS011;49026;52.600;4.694;2023-05-14T02:31:51;31.63;;;16.48;;
62724;SDS011;49026;52.600;4.694;2023-05-14T02:34:16;35.42;;;17.00;;
62724;SDS011;49026;52.600;4.694;2023-05-14T02:36:46;27.40;;;14.52;;
62724;SDS011;49026;52.600;4.694;2023-05-14T02:39:12;35.72;;;18.77;;
62724;SDS011;49026;52.600;4.694;2023-05-14T02:41:37;30.88;;;15.35;;
62724;SDS011;49026;52.600;4.694;2023-05-14T02:44:02;29.95;;;15.63;;
62724;SDS011;49026;52.600;4.694;2023-05-14T02:46:30;32.13;;;17.02;;
62724;SDS011;49026;52.600;4.694;2023-05-14T02:48:57;48.53;;;21.10;;
62724;SDS011;49026;52.600;4.694;2023-05-14T02:51:23;30.35;;;15.18;;
62724;SDS011;49026;52.600;4.694;2023-05-14T02:53:51;39.65;;;18.60;;
62724;SDS011;49026;52.600;4.694;2023-05-14T02:56:18;34.50;;;19.42;;
62724;SDS011;49026;52.600;4.694;2023-05-14T02:58:43;39.80;;;20.65;;
62724;SDS011;49026;52.600;4.694;2023-05-14T03:01:09;42.90;;;20.13;;
62724;SDS011;49026;52.600;4.694;2023-05-14T03:03:37;38.50;;;20.30;;
62724;SDS011;49026;52.600;4.694;2023-05-14T03:06:05;37.55;;;19.63;;
62724;SDS011;49026;52.600;4.694;2023-05-14T03:08:30;43.67;;;24.15;;
62724;SDS011;49026;52.600;4.694;2023-05-14T03:10:58;37.13;;;20.50;;
62724;SDS011;49026;52.600;4.694;2023-05-14T03:13:23;37.97;;;20.70;;
62724;SDS011;49026;52.600;4.694;2023-05-14T03:15:48;34.88;;;18.75;;
62724;SDS011;49026;52.600;4.694;2023-05-14T03:18:18;40.58;;;22.75;;
62724;SDS011;49026;52.600;4.694;2023-05-14T03:20:43;52.90;;;25.00;;
62724;SDS011;49026;52.600;4.694;2023-05-14T03:23:09;35.05;;;20.85;;
62724;SDS011;49026;52.600;4.694;2023-05-14T03:25:34;40.70;;;21.23;;
62724;SDS011;49026;52.600;4.694;2023-05-14T03:27:59;33.65;;;19.25;;
62724;SDS011;49026;52.600;4.694;2023-05-14T03:30:27;49.22;;;22.92;;
62724;SDS011;49026;52.600;4.694;2023-05-14T03:32:52;44.03;;;21.73;;
62724;SDS011;49026;52.600;4.694;2023-05-14T03:35:18;45.13;;;21.23;;
62724;SDS011;49026;52.600;4.694;2023-05-14T03:37:46;37.95;;;20.27;;
62724;SDS011;49026;52.600;4.694;2023-05-14T03:40:13;39.15;;;21.45;;
62724;SDS011;49026;52.600;4.694;2023-05-14T03:42:39;53.67;;;22.13;;
62724;SDS011;49026;52.600;4.694;2023-05-14T03:45:04;50.17;;;23.40;;
62724;SDS011;49026;52.600;4.694;2023-05-14T03:47:30;48.17;;;22.83;;
62724;SDS011;49026;52.600;4.694;2023-05-14T03:49:56;50.35;;;23.73;;
62724;SDS011;49026;52.600;4.694;2023-05-14T03:52:21;48.38;;;22.70;;
62724;SDS011;49026;52.600;4.694;2023-05-14T03:54:49;49.00;;;22.95;;
62724;SDS011;49026;52.600;4.694;2023-05-14T03:57:14;46.53;;;22.48;;
62724;SDS011;49026;52.600;4.694;2023-05-14T03:59:40;42.38;;;20.40;;
62724;SDS011;49026;52.600;4.694;2023-05-14T04:02:05;48.35;;;21.52;;
62724;SDS011;49026;52.600;4.694;2023-05-14T04:04:31;46.17;;;22.20;;
62724;SDS011;49026;52.600;4.694;2023-05-14T04:06:56;48.10;;;21.33;;
62724;SDS011;49026;52.600;4.694;2023-05-14T04:09:21;50.03;;;22.70;;
62724;SDS011;49026;52.600;4.694;2023-05-14T04:11:47;52.60;;;23.25;;
62724;SDS011;49026;52.600;4.694;2023-05-14T04:14:12;46.00;;;21.13;;
62724;SDS011;49026;52.600;4.694;2023-05-14T04:16:41;34.15;;;19.33;;
62724;SDS011;49026;52.600;4.694;2023-05-14T04:19:06;40.20;;;19.80;;
62724;SDS011;49026;52.600;4.694;2023-05-14T04:21:34;42.30;;;20.35;;
62724;SDS011;49026;52.600;4.694;2023-05-14T04:23:59;48.67;;;21.42;;
62724;SDS011;49026;52.600;4.694;2023-05-14T04:26:24;44.38;;;18.85;;
62724;SDS011;49026;52.600;4.694;2023-05-14T04:28:50;38.45;;;17.15;;
62724;SDS011;49026;52.600;4.694;2023-05-14T04:31:16;41.58;;;17.55;;
62724;SDS011;49026;52.600;4.694;2023-05-14T04:33:41;32.45;;;18.42;;
62724;SDS011;49026;52.600;4.694;2023-05-14T04:36:07;39.35;;;19.08;;
62724;SDS011;49026;52.600;4.694;2023-05-14T04:38:35;45.25;;;18.50;;
62724;SDS011;49026;52.600;4.694;2023-05-14T04:41:00;35.85;;;17.30;;
62724;SDS011;49026;52.600;4.694;2023-05-14T04:43:26;34.20;;;18.13;;
62724;SDS011;49026;52.600;4.694;2023-05-14T04:45:51;31.30;;;15.82;;
62724;SDS011;49026;52.600;4.694;2023-05-14T04:48:16;37.70;;;17.15;;
62724;SDS011;49026;52.600;4.694;2023-05-14T04:50:42;39.35;;;15.25;;
62724;SDS011;49026;52.600;4.694;2023-05-14T04:53:10;35.95;;;16.00;;
62724;SDS011;49026;52.600;4.694;2023-05-14T04:55:35;37.10;;;15.30;;
62724;SDS011;49026;52.600;4.694;2023-05-14T04:58:01;27.08;;;14.55;;
62724;SDS011;49026;52.600;4.694;2023-05-14T05:00:26;31.45;;;15.43;;
62724;SDS011;49026;52.600;4.694;2023-05-14T05:02:52;31.70;;;15.73;;
62724;SDS011;49026;52.600;4.694;2023-05-14T05:05:20;28.77;;;16.67;;
62724;SDS011;49026;52.600;4.694;2023-05-14T05:07:48;33.50;;;16.15;;
62724;SDS011;49026;52.600;4.694;2023-05-14T05:10:16;28.98;;;14.63;;
62724;SDS011;49026;52.600;4.694;2023-05-14T05:12:41;24.50;;;13.40;;
62724;SDS011;49026;52.600;4.694;2023-05-14T05:15:08;34.67;;;15.13;;
62724;SDS011;49026;52.600;4.694;2023-05-14T05:17:38;25.85;;;14.00;;
62724;SDS011;49026;52.600;4.694;2023-05-14T05:20:04;24.67;;;14.38;;
62724;SDS011;49026;52.600;4.694;2023-05-14T05:22:32;34.95;;;15.00;;
62724;SDS011;49026;52.600;4.694;2023-05-14T05:24:58;26.17;;;13.43;;
62724;SDS011;49026;52.600;4.694;2023-05-14T05:27:25;28.85;;;12.80;;
62724;SDS011;49026;52.600;4.694;2023-05-14T05:29:51;26.95;;;13.05;;
62724;SDS011;49026;52.600;4.694;2023-05-14T05:32:16;22.30;;;11.10;;
62724;SDS011;49026;52.600;4.694;2023-05-14T05:34:41;21.20;;;11.27;;
62724;SDS011;49026;52.600;4.694;2023-05-14T05:37:09;20.98;;;12.27;;
62724;SDS011;49026;52.600;4.694;2023-05-14T05:39:36;25.42;;;12.13;;
62724;SDS011;49026;52.600;4.694;2023-05-14T05:42:04;29.70;;;12.35;;
62724;SDS011;49026;52.600;4.694;2023-05-14T05:44:32;22.52;;;11.75;;
62724;SDS011;49026;52.600;4.694;2023-05-14T05:46:57;22.33;;;10.80;;
62724;SDS011;49026;52.600;4.694;2023-05-14T05:49:22;27.85;;;12.27;;
62724;SDS011;49026;52.600;4.694;2023-05-14T05:51:48;22.75;;;11.80;;
62724;SDS011;49026;52.600;4.694;2023-05-14T05:54:13;30.13;;;13.13;;
62724;SDS011;49026;52.600;4.694;2023-05-14T05:56:38;27.90;;;13.40;;
62724;SDS011;49026;52.600;4.694;2023-05-14T05:59:07;19.75;;;11.55;;
62724;SDS011;49026;52.600;4.694;2023-05-14T06:01:32;26.27;;;13.13;;
62724;SDS011;49026;52.600;4.694;2023-05-14T06:03:57;35.67;;;14.20;;
62724;SDS011;49026;52.600;4.694;2023-05-14T06:06:26;26.83;;;13.63;;
62724;SDS011;49026;52.600;4.694;2023-05-14T06:08:51;26.90;;;14.52;;
62724;SDS011;49026;52.600;4.694;2023-05-14T06:11:18;34.00;;;14.77;;
62724;SDS011;49026;52.600;4.694;2023-05-14T06:13:44;23.20;;;12.98;;
62724;SDS011;49026;52.600;4.694;2023-05-14T06:16:09;40.40;;;14.98;;
62724;SDS011;49026;52.600;4.694;2023-05-14T06:18:37;29.95;;;15.63;;
62724;SDS011;49026;52.600;4.694;2023-05-14T06:21:02;32.67;;;14.95;;
62724;SDS011;49026;52.600;4.694;2023-05-14T06:23:28;26.10;;;14.82;;
62724;SDS011;49026;52.600;4.694;2023-05-14T06:25:53;28.40;;;12.80;;
62724;SDS011;49026;52.600;4.694;2023-05-14T06:28:19;28.42;;;14.48;;
62724;SDS011;49026;52.600;4.694;2023-05-14T06:30:44;21.73;;;11.18;;
62724;SDS011;49026;52.600;4.694;2023-05-14T06:33:09;34.92;;;10.52;;
62724;SDS011;49026;52.600;4.694;2023-05-14T06:35:37;26.83;;;11.93;;
62724;SDS011;49026;52.600;4.694;2023-05-14T06:38:02;26.25;;;12.20;;
62724;SDS011;49026;52.600;4.694;2023-05-14T06:40:27;32.42;;;12.70;;
62724;SDS011;49026;52.600;4.694;2023-05-14T06:42:53;29.35;;;12.60;;
62724;SDS011;49026;52.600;4.694;2023-05-14T06:45:18;28.55;;;10.95;;
62724;SDS011;49026;52.600;4.694;2023-05-14T06:47:43;27.08;;;11.57;;
62724;SDS011;49026;52.600;4.694;2023-05-14T06:50:11;29.58;;;11.73;;
62724;SDS011;49026;52.600;4.694;2023-05-14T06:52:36;16.30;;;9.20;;
62724;SDS011;49026;52.600;4.694;2023-05-14T06:55:02;22.13;;;8.43;;
62724;SDS011;49026;52.600;4.694;2023-05-14T06:57:27;19.30;;;8.35;;
62724;SDS011;49026;52.600;4.694;2023-05-14T06:59:52;18.52;;;9.73;;
62724;SDS011;49026;52.600;4.694;2023-05-14T07:02:18;19.70;;;9.00;;
62724;SDS011;49026;52.600;4.694;2023-05-14T07:04:43;15.38;;;8.55;;
62724;SDS011;49026;52.600;4.694;2023-05-14T07:07:08;13.32;;;7.25;;
62724;SDS011;49026;52.600;4.694;2023-05-14T07:09:39;19.15;;;8.30;;
62724;SDS011;49026;52.600;4.694;2023-05-14T07:12:08;17.25;;;8.45;;
62724;SDS011;49026;52.600;4.694;2023-05-14T07:14:33;17.05;;;7.80;;
62724;SDS011;49026;52.600;4.694;2023-05-14T07:16:58;9.15;;;5.70;;
62724;SDS011;49026;52.600;4.694;2023-05-14T07:19:24;10.57;;;6.53;;
62724;SDS011;49026;52.600;4.694;2023-05-14T07:21:55;18.83;;;6.43;;
62724;SDS011;49026;52.600;4.694;2023-05-14T07:24:21;12.20;;;6.47;;
62724;SDS011;49026;52.600;4.694;2023-05-14T07:26:48;10.20;;;4.53;;
62724;SDS011;49026;52.600;4.694;2023-05-14T07:29:16;13.88;;;5.53;;
62724;SDS011;49026;52.600;4.694;2023-05-14T07:31:41;14.57;;;5.38;;
62724;SDS011;49026;52.600;4.694;2023-05-14T07:34:07;19.30;;;6.07;;
62724;SDS011;49026;52.600;4.694;2023-05-14T07:36:37;13.02;;;6.03;;
62724;SDS011;49026;52.600;4.694;2023-05-14T07:39:02;11.55;;;5.97;;
62724;SDS011;49026;52.600;4.694;2023-05-14T07:41:28;13.38;;;5.57;;
62724;SDS011;49026;52.600;4.694;2023-05-14T07:43:53;8.32;;;5.55;;
62724;SDS011;49026;52.600;4.694;2023-05-14T07:46:18;17.80;;;6.80;;
62724;SDS011;49026;52.600;4.694;2023-05-14T07:48:43;14.05;;;6.25;;
62724;SDS011;49026;52.600;4.694;2023-05-14T07:51:09;12.57;;;5.78;;
62724;SDS011;49026;52.600;4.694;2023-05-14T07:53:34;11.55;;;6.07;;
62724;SDS011;49026;52.600;4.694;2023-05-14T07:55:59;11.55;;;5.22;;
62724;SDS011;49026;52.600;4.694;2023-05-14T07:58:25;12.95;;;5.07;;
62724;SDS011;49026;52.600;4.694;2023-05-14T08:00:52;14.98;;;4.85;;
62724;SDS011;49026;52.600;4.694;2023-05-14T08:03:17;12.48;;;4.97;;
62724;SDS011;49026;52.600;4.694;2023-05-14T08:05:42;15.40;;;5.38;;
62724;SDS011;49026;52.600;4.694;2023-05-14T08:08:10;10.95;;;5.45;;
62724;SDS011;49026;52.600;4.694;2023-05-14T08:10:38;11.73;;;5.13;;
62724;SDS011;49026;52.600;4.694;2023-05-14T08:13:06;13.25;;;5.85;;
62724;SDS011;49026;52.600;4.694;2023-05-14T08:15:36;16.58;;;4.85;;
62724;SDS011;49026;52.600;4.694;2023-05-14T08:18:01;10.55;;;4.93;;
62724;SDS011;49026;52.600;4.694;2023-05-14T08:20:28;11.40;;;4.68;;
62724;SDS011;49026;52.600;4.694;2023-05-14T08:22:56;11.55;;;4.30;;
62724;SDS011;49026;52.600;4.694;2023-05-14T08:25:22;16.48;;;5.10;;
62724;SDS011;49026;52.600;4.694;2023-05-14T08:27:47;10.02;;;4.20;;
62724;SDS011;49026;52.600;4.694;2023-05-14T08:30:13;12.98;;;4.28;;
62724;SDS011;49026;52.600;4.694;2023-05-14T08:32:38;9.77;;;3.75;;
62724;SDS011;49026;52.600;4.694;2023-05-14T08:35:04;15.80;;;5.20;;
62724;SDS011;49026;52.600;4.694;2023-05-14T08:37:29;10.23;;;3.75;;
62724;SDS011;49026;52.600;4.694;2023-05-14T08:39:55;9.93;;;3.35;;
62724;SDS011;49026;52.600;4.694;2023-05-14T08:42:23;11.52;;;3.80;;
62724;SDS011;49026;52.600;4.694;2023-05-14T08:44:52;8.27;;;3.40;;
62724;SDS011;49026;52.600;4.694;2023-05-14T08:47:24;8.63;;;3.13;;
62724;SDS011;49026;52.600;4.694;2023-05-14T08:50:05;7.47;;;3.10;;
62724;SDS011;49026;52.600;4.694;2023-05-14T08:52:33;15.18;;;3.80;;
62724;SDS011;49026;52.600;4.694;2023-05-14T08:55:04;10.35;;;3.75;;
62724;SDS011;49026;52.600;4.694;2023-05-14T08:57:33;8.98;;;3.63;;
62724;SDS011;49026;52.600;4.694;2023-05-14T08:59:59;10.88;;;4.10;;
62724;SDS011;49026;52.600;4.694;2023-05-14T09:02:27;9.45;;;3.35;;
62724;SDS011;49026;52.600;4.694;2023-05-14T09:04:54;15.52;;;4.57;;
62724;SDS011;49026;52.600;4.694;2023-05-14T09:07:21;9.80;;;3.17;;
62724;SDS011;49026;52.600;4.694;2023-05-14T09:09:50;12.13;;;3.85;;
62724;SDS011;49026;52.600;4.694;2023-05-14T09:12:16;11.48;;;3.28;;
62724;SDS011;49026;52.600;4.694;2023-05-14T09:14:45;10.25;;;3.08;;
62724;SDS011;49026;52.600;4.694;2023-05-14T09:17:11;10.32;;;3.38;;
62724;SDS011;49026;52.600;4.694;2023-05-14T09:19:39;10.68;;;3.40;;
62724;SDS011;49026;52.600;4.694;2023-05-14T09:22:10;9.52;;;3.20;;
62724;SDS011;49026;52.600;4.694;2023-05-14T09:24:37;16.75;;;2.92;;
62724;SDS011;49026;52.600;4.694;2023-05-14T09:27:05;11.73;;;3.13;;
62724;SDS011;49026;52.600;4.694;2023-05-14T09:29:31;13.45;;;3.22;;
62724;SDS011;49026;52.600;4.694;2023-05-14T09:31:58;11.68;;;3.40;;
62724;SDS011;49026;52.600;4.694;2023-05-14T09:34:27;12.85;;;3.55;;
62724;SDS011;49026;52.600;4.694;2023-05-14T09:39:30;10.43;;;3.10;;
62724;SDS011;49026;52.600;4.694;2023-05-14T09:41:57;11.02;;;3.00;;
62724;SDS011;49026;52.600;4.694;2023-05-14T09:44:22;9.77;;;2.95;;
62724;SDS011;49026;52.600;4.694;2023-05-14T09:46:48;8.48;;;3.15;;
62724;SDS011;49026;52.600;4.694;2023-05-14T09:49:17;11.38;;;2.92;;
62724;SDS011;49026;52.600;4.694;2023-05-14T09:51:42;7.93;;;3.00;;
62724;SDS011;49026;52.600;4.694;2023-05-14T09:54:10;14.48;;;3.95;;
62724;SDS011;49026;52.600;4.694;2023-05-14T09:56:36;10.18;;;3.20;;
62724;SDS011;49026;52.600;4.694;2023-05-14T09:59:02;14.23;;;4.28;;
62724;SDS011;49026;52.600;4.694;2023-05-14T10:01:28;7.72;;;3.25;;
62724;SDS011;49026;52.600;4.694;2023-05-14T10:03:57;13.05;;;3.00;;
62724;SDS011;49026;52.600;4.694;2023-05-14T10:06:24;11.38;;;3.40;;
62724;SDS011;49026;52.600;4.694;2023-05-14T10:08:52;10.93;;;3.30;;
62724;SDS011;49026;52.600;4.694;2023-05-14T10:11:22;6.67;;;2.80;;
62724;SDS011;49026;52.600;4.694;2023-05-14T10:13:54;10.82;;;3.05;;
62724;SDS011;49026;52.600;4.694;2023-05-14T10:19:08;9.57;;;3.10;;
62724;SDS011;49026;52.600;4.694;2023-05-14T10:21:37;8.90;;;3.17;;
62724;SDS011;49026;52.600;4.694;2023-05-14T10:26:31;7.57;;;2.92;;
62724;SDS011;49026;52.600;4.694;2023-05-14T10:29:03;5.70;;;2.70;;
62724;SDS011;49026;52.600;4.694;2023-05-14T10:34:32;7.75;;;2.88;;
62724;SDS011;49026;52.600;4.694;2023-05-14T10:39:51;12.77;;;3.28;;
62724;SDS011;49026;52.600;4.694;2023-05-14T10:44:56;9.98;;;3.30;;
62724;SDS011;49026;52.600;4.694;2023-05-14T10:47:28;13.48;;;3.20;;
62724;SDS011;49026;52.600;4.694;2023-05-14T10:50:00;10.75;;;3.08;;
62724;SDS011;49026;52.600;4.694;2023-05-14T10:52:28;10.35;;;2.95;;
62724;SDS011;49026;52.600;4.694;2023-05-14T10:54:57;11.05;;;3.08;;
62724;SDS011;49026;52.600;4.694;2023-05-14T10:57:25;11.98;;;2.75;;
62724;SDS011;49026;52.600;4.694;2023-05-14T10:59:54;7.97;;;3.33;;
62724;SDS011;49026;52.600;4.694;2023-05-14T11:07:32;8.70;;;2.92;;
62724;SDS011;49026;52.600;4.694;2023-05-14T11:10:03;10.30;;;3.10;;
62724;SDS011;49026;52.600;4.694;2023-05-14T11:12:30;10.40;;;3.03;;
62724;SDS011;49026;52.600;4.694;2023-05-14T11:14:56;8.50;;;3.17;;
62724;SDS011;49026;52.600;4.694;2023-05-14T11:17:23;7.93;;;3.45;;
62724;SDS011;49026;52.600;4.694;2023-05-14T11:19:50;9.45;;;3.50;;
62724;SDS011;49026;52.600;4.694;2023-05-14T11:22:15;8.40;;;3.15;;
62724;SDS011;49026;52.600;4.694;2023-05-14T11:24:42;12.57;;;3.50;;
62724;SDS011;49026;52.600;4.694;2023-05-14T11:27:10;7.88;;;3.47;;
62724;SDS011;49026;52.600;4.694;2023-05-14T11:29:35;10.13;;;3.78;;
62724;SDS011;49026;52.600;4.694;2023-05-14T11:32:07;8.88;;;3.30;;
62724;SDS011;49026;52.600;4.694;2023-05-14T11:34:35;12.10;;;4.10;;
62724;SDS011;49026;52.600;4.694;2023-05-14T11:37:02;11.85;;;3.55;;
62724;SDS011;49026;52.600;4.694;2023-05-14T11:39:30;10.38;;;3.05;;
62724;SDS011;49026;52.600;4.694;2023-05-14T11:41:57;12.40;;;3.50;;
62724;SDS011;49026;52.600;4.694;2023-05-14T11:44:47;10.63;;;2.97;;
62724;SDS011;49026;52.600;4.694;2023-05-14T11:47:14;9.13;;;2.88;;
62724;SDS011;49026;52.600;4.694;2023-05-14T11:49:42;9.32;;;3.10;;
62724;SDS011;49026;52.600;4.694;2023-05-14T11:52:08;7.60;;;2.60;;
62724;SDS011;49026;52.600;4.694;2023-05-14T11:54:36;11.07;;;3.13;;
62724;SDS011;49026;52.600;4.694;2023-05-14T11:57:05;8.63;;;2.80;;
62724;SDS011;49026;52.600;4.694;2023-05-14T11:59:32;11.15;;;4.25;;
62724;SDS011;49026;52.600;4.694;2023-05-14T12:01:57;9.48;;;3.55;;
62724;SDS011;49026;52.600;4.694;2023-05-14T12:04:23;14.25;;;3.92;;
62724;SDS011;49026;52.600;4.694;2023-05-14T12:06:50;9.23;;;3.42;;
62724;SDS011;49026;52.600;4.694;2023-05-14T12:09:16;10.90;;;3.30;;
62724;SDS011;49026;52.600;4.694;2023-05-14T12:11:45;9.77;;;3.47;;
62724;SDS011;49026;52.600;4.694;2023-05-14T12:14:29;9.88;;;3.17;;
62724;SDS011;49026;52.600;4.694;2023-05-14T12:17:00;7.78;;;3.30;;
62724;SDS011;49026;52.600;4.694;2023-05-14T12:19:26;10.50;;;3.20;;
62724;SDS011;49026;52.600;4.694;2023-05-14T12:21:51;10.73;;;2.92;;
62724;SDS011;49026;52.600;4.694;2023-05-14T12:24:17;12.82;;;3.25;;
62724;SDS011;49026;52.600;4.694;2023-05-14T12:26:47;8.57;;;2.60;;
62724;SDS011;49026;52.600;4.694;2023-05-14T12:29:16;11.15;;;2.95;;
62724;SDS011;49026;52.600;4.694;2023-05-14T12:31:51;8.75;;;2.75;;
62724;SDS011;49026;52.600;4.694;2023-05-14T12:34:16;8.90;;;2.75;;
62724;SDS011;49026;52.600;4.694;2023-05-14T12:36:44;9.85;;;2.72;;
62724;SDS011;49026;52.600;4.694;2023-05-14T12:39:09;12.70;;;3.08;;
62724;SDS011;49026;52.600;4.694;2023-05-14T12:41:36;10.85;;;2.65;;
62724;SDS011;49026;52.600;4.694;2023-05-14T12:44:02;7.47;;;2.70;;
62724;SDS011;49026;52.600;4.694;2023-05-14T12:46:28;5.93;;;2.50;;
62724;SDS011;49026;52.600;4.694;2023-05-14T12:48:54;9.48;;;2.33;;
62724;SDS011;49026;52.600;4.694;2023-05-14T12:51:21;9.63;;;2.50;;
62724;SDS011;49026;52.600;4.694;2023-05-14T12:53:47;12.50;;;2.70;;
62724;SDS011;49026;52.600;4.694;2023-05-14T12:56:16;8.95;;;2.33;;
62724;SDS011;49026;52.600;4.694;2023-05-14T12:58:41;9.00;;;2.53;;
62724;SDS011;49026;52.600;4.694;2023-05-14T13:01:06;5.32;;;1.92;;
62724;SDS011;49026;52.600;4.694;2023-05-14T13:03:32;11.02;;;2.35;;
62724;SDS011;49026;52.600;4.694;2023-05-14T13:05:57;9.57;;;2.42;;
62724;SDS011;49026;52.600;4.694;2023-05-14T13:08:23;11.80;;;2.80;;
62724;SDS011;49026;52.600;4.694;2023-05-14T13:10:50;10.35;;;3.15;;
62724;SDS011;49026;52.600;4.694;2023-05-14T13:13:19;17.45;;;3.42;;
62724;SDS011;49026;52.600;4.694;2023-05-14T13:15:44;9.38;;;2.88;;
62724;SDS011;49026;52.600;4.694;2023-05-14T13:18:11;9.35;;;2.85;;
62724;SDS011;49026;52.600;4.694;2023-05-14T13:20:44;12.18;;;2.67;;
62724;SDS011;49026;52.600;4.694;2023-05-14T13:23:11;9.65;;;3.15;;
62724;SDS011;49026;52.600;4.694;2023-05-14T13:25:36;13.18;;;3.53;;
62724;SDS011;49026;52.600;4.694;2023-05-14T13:28:02;12.07;;;3.22;;
62724;SDS011;49026;52.600;4.694;2023-05-14T13:30:27;17.65;;;3.00;;
62724;SDS011;49026;52.600;4.694;2023-05-14T13:32:52;12.60;;;3.50;;
62724;SDS011;49026;52.600;4.694;2023-05-14T13:35:18;11.23;;;3.28;;
62724;SDS011;49026;52.600;4.694;2023-05-14T13:37:45;21.63;;;3.50;;
62724;SDS011;49026;52.600;4.694;2023-05-14T13:40:11;15.95;;;3.58;;
62724;SDS011;49026;52.600;4.694;2023-05-14T13:42:36;15.48;;;3.60;;
62724;SDS011;49026;52.600;4.694;2023-05-14T13:45:03;10.27;;;3.53;;
62724;SDS011;49026;52.600;4.694;2023-05-14T13:47:29;10.63;;;3.42;;
62724;SDS011;49026;52.600;4.694;2023-05-14T13:49:55;13.90;;;3.28;;
62724;SDS011;49026;52.600;4.694;2023-05-14T13:52:24;11.60;;;3.10;;
62724;SDS011;49026;52.600;4.694;2023-05-14T13:54:50;10.05;;;2.63;;
62724;SDS011;49026;52.600;4.694;2023-05-14T13:57:16;5.82;;;2.55;;
62724;SDS011;49026;52.600;4.694;2023-05-14T13:59:41;11.95;;;3.10;;
62724;SDS011;49026;52.600;4.694;2023-05-14T14:02:06;10.38;;;2.90;;
62724;SDS011;49026;52.600;4.694;2023-05-14T14:04:32;10.45;;;3.10;;
62724;SDS011;49026;52.600;4.694;2023-05-14T14:06:57;18.45;;;3.15;;
62724;SDS011;49026;52.600;4.694;2023-05-14T14:09:23;11.80;;;3.83;;
62724;SDS011;49026;52.600;4.694;2023-05-14T14:11:49;9.25;;;4.57;;
62724;SDS011;49026;52.600;4.694;2023-05-14T14:14:14;12.60;;;4.38;;
62724;SDS011;49026;52.600;4.694;2023-05-14T14:16:40;8.13;;;2.80;;
62724;SDS011;49026;52.600;4.694;2023-05-14T14:19:05;9.18;;;3.05;;
62724;SDS011;49026;52.600;4.694;2023-05-14T14:21:31;11.82;;;3.40;;
62724;SDS011;49026;52.600;4.694;2023-05-14T14:23:59;9.63;;;3.50;;
62724;SDS011;49026;52.600;4.694;2023-05-14T14:26:24;8.07;;;3.78;;
62724;SDS011;49026;52.600;4.694;2023-05-14T14:28:54;11.50;;;3.30;;
62724;SDS011;49026;52.600;4.694;2023-05-14T14:31:19;10.70;;;3.58;;
62724;SDS011;49026;52.600;4.694;2023-05-14T14:33:45;11.43;;;3.50;;
62724;SDS011;49026;52.600;4.694;2023-05-14T14:36:10;9.45;;;3.35;;
62724;SDS011;49026;52.600;4.694;2023-05-14T14:38:35;7.65;;;3.35;;
62724;SDS011;49026;52.600;4.694;2023-05-14T14:41:03;8.43;;;3.30;;
62724;SDS011;49026;52.600;4.694;2023-05-14T14:43:31;16.80;;;5.22;;
62724;SDS011;49026;52.600;4.694;2023-05-14T14:45:57;7.78;;;3.10;;
62724;SDS011;49026;52.600;4.694;2023-05-14T14:50:57;10.00;;;4.03;;
62724;SDS011;49026;52.600;4.694;2023-05-14T14:53:23;9.35;;;3.80;;
62724;SDS011;49026;52.600;4.694;2023-05-14T14:55:51;5.90;;;3.17;;